createdAt,value
2022-08-05T00:01:21.030Z,26.28
2022-08-05T00:04:28.488Z,26.27
2022-08-05T00:08:00.120Z,26.30
2022-08-05T00:11:01.962Z,26.13
2022-08-05T00:14:11.954Z,26.14
2022-08-05T00:17:19.673Z,26.20
2022-08-05T00:20:29.025Z,26.19
2022-08-05T00:23:45.700Z,26.17
2022-08-05T00:26:53.635Z,26.14
2022-08-05T00:30:00.402Z,26.13
2022-08-05T00:33:15.517Z,26.01
2022-08-05T00:37:12.653Z,25.82
2022-08-05T00:40:01.151Z,25.92
2022-08-05T00:43:08.171Z,25.82
2022-08-05T00:46:16.169Z,25.74
2022-08-05T00:49:21.672Z,25.67
2022-08-05T00:52:28.702Z,25.81
2022-08-05T00:55:42.865Z,25.72
2022-08-05T00:58:49.834Z,25.71
2022-08-05T01:01:55.455Z,25.53
2022-08-05T01:05:00.682Z,25.62
2022-08-05T01:08:39.898Z,25.65
2022-08-05T01:11:39.968Z,25.59
2022-08-05T01:15:06.546Z,25.70
2022-08-05T01:18:41.355Z,25.47
2022-08-05T01:22:28.166Z,25.28
2022-08-05T01:26:02.775Z,25.44
2022-08-05T01:29:23.111Z,25.54
2022-08-05T01:32:31.672Z,25.47
2022-08-05T01:35:50.756Z,25.56
2022-08-05T01:39:01.181Z,25.56
2022-08-05T01:42:12.053Z,25.44
2022-08-05T01:45:21.485Z,25.38
2022-08-05T01:48:29.361Z,25.26
2022-08-05T01:51:36.611Z,25.43
2022-08-05T01:54:49.199Z,25.11
2022-08-05T01:58:29.499Z,25.27
2022-08-05T02:01:28.283Z,25.26
2022-08-05T02:04:43.278Z,25.17
2022-08-05T02:07:59.808Z,25.26
2022-08-05T02:11:11.649Z,25.24
2022-08-05T02:14:29.315Z,25.10
2022-08-05T02:18:31.484Z,24.98
2022-08-05T02:21:42.891Z,24.92
2022-08-05T02:24:56.581Z,24.97
2022-08-05T02:28:08.684Z,24.99
2022-08-05T02:31:28.449Z,25.04
2022-08-05T02:34:42.173Z,25.04
2022-08-05T02:37:53.991Z,25.06
2022-08-05T02:41:00.766Z,25.13
2022-08-05T02:44:24.075Z,25.11
2022-08-05T02:47:58.595Z,24.99
2022-08-05T02:51:01.723Z,25.04
2022-08-05T02:54:07.953Z,24.96
2022-08-05T02:58:10.788Z,24.87
2022-08-05T03:00:46.098Z,24.78
2022-08-05T03:04:02.800Z,24.61
2022-08-05T03:07:40.296Z,24.57
2022-08-05T03:10:37.244Z,24.46
2022-08-05T03:13:51.987Z,24.30
2022-08-05T03:17:09.168Z,24.21
2022-08-05T03:20:15.341Z,24.31
2022-08-05T03:23:24.174Z,24.48
2022-08-05T03:26:32.414Z,24.55
2022-08-05T03:29:45.424Z,24.59
2022-08-05T03:33:07.258Z,24.41
2022-08-05T03:36:13.222Z,24.34
2022-08-05T03:39:20.136Z,24.41
2022-08-05T03:42:33.116Z,24.36
2022-08-05T03:45:59.019Z,24.34
2022-08-05T03:49:05.145Z,24.38
2022-08-05T03:52:36.559Z,24.37
2022-08-05T03:56:10.566Z,24.02
2022-08-05T03:59:29.267Z,24.01
2022-08-05T04:02:58.597Z,24.12
2022-08-05T04:06:06.737Z,24.07
2022-08-05T04:09:25.863Z,24.24
2022-08-05T04:15:39.732Z,24.28
2022-08-05T04:19:10.629Z,24.30
2022-08-05T04:22:20.505Z,24.24
2022-08-05T04:25:57.956Z,24.15
2022-08-05T04:28:52.397Z,24.21
2022-08-05T04:31:57.798Z,24.24
2022-08-05T04:35:03.174Z,24.33
2022-08-05T04:38:11.064Z,24.24
2022-08-05T04:41:21.726Z,24.29
2022-08-05T04:44:43.238Z,24.28
2022-08-05T04:47:50.231Z,24.39
2022-08-05T04:51:01.630Z,24.37
2022-08-05T04:54:09.690Z,24.50
2022-08-05T04:57:15.870Z,24.54
2022-08-05T05:00:23.589Z,24.76
2022-08-05T05:03:32.503Z,24.75
2022-08-05T05:06:52.033Z,24.77
2022-08-05T05:10:06.329Z,24.80
2022-08-05T05:13:14.962Z,24.84
2022-08-05T05:16:20.683Z,24.93
2022-08-05T05:19:36.992Z,24.91
2022-08-05T05:22:52.575Z,25.30
2022-08-05T05:25:57.878Z,25.19
2022-08-05T05:29:10.140Z,25.42
2022-08-05T05:32:20.538Z,25.49
2022-08-05T05:35:26.614Z,25.66
2022-08-05T05:38:35.362Z,25.94
2022-08-05T05:41:41.922Z,25.98
2022-08-05T05:44:47.998Z,25.90
2022-08-05T05:48:06.247Z,25.62
2022-08-05T05:51:19.842Z,26.07
2022-08-05T05:54:49.789Z,26.19
2022-08-05T05:57:52.829Z,26.18
2022-08-05T06:01:02.059Z,26.49
2022-08-05T06:04:13.177Z,26.51
2022-08-05T06:07:22.478Z,26.58
2022-08-05T06:10:29.532Z,26.60
2022-08-05T06:13:50.448Z,26.68
2022-08-05T06:17:02.086Z,26.93
2022-08-05T06:20:28.696Z,26.91
2022-08-05T06:23:44.234Z,27.14
2022-08-05T06:26:52.397Z,27.20
2022-08-05T06:30:04.602Z,27.37
2022-08-05T06:33:33.261Z,27.46
2022-08-05T06:36:57.429Z,27.68
2022-08-05T06:40:05.987Z,27.84
2022-08-05T06:43:58.163Z,28.01
2022-08-05T06:46:38.457Z,28.03
2022-08-05T06:50:01.385Z,28.09
2022-08-05T06:53:22.370Z,28.12
2022-08-05T06:56:34.469Z,28.26
2022-08-05T06:59:42.210Z,28.25
2022-08-05T07:02:54.406Z,28.36
2022-08-05T07:06:05.963Z,28.50
2022-08-05T07:09:19.801Z,28.58
2022-08-05T07:12:49.424Z,28.60
2022-08-05T07:16:13.558Z,28.78
2022-08-05T07:23:06.562Z,29.12
2022-08-05T07:26:13.313Z,29.09
2022-08-05T07:29:20.187Z,29.46
2022-08-05T07:32:46.492Z,29.49
2022-08-05T07:36:05.889Z,29.60
2022-08-05T07:40:26.150Z,29.66
2022-08-05T07:42:50.906Z,29.75
2022-08-05T07:45:58.237Z,29.96
2022-08-05T07:49:07.773Z,30.06
2022-08-05T07:52:13.732Z,30.13
2022-08-05T07:55:44.510Z,30.17
2022-08-05T07:58:57.851Z,30.25
2022-08-05T08:02:05.321Z,30.50
2022-08-05T08:05:11.590Z,30.52
2022-08-05T08:08:19.922Z,30.54
2022-08-05T08:11:27.817Z,30.79
2022-08-05T08:14:51.850Z,30.68
2022-08-05T08:17:57.556Z,30.79
2022-08-05T08:21:09.709Z,30.94
2022-08-05T08:24:21.863Z,31.05
2022-08-05T08:27:51.438Z,30.73
2022-08-05T08:30:57.160Z,30.88
2022-08-05T08:34:02.898Z,30.73
2022-08-05T08:37:08.627Z,30.92
2022-08-05T08:40:14.899Z,30.87
2022-08-05T08:45:20.785Z,31.15
2022-08-05T08:46:49.594Z,30.95
2022-08-05T08:50:13.136Z,31.19
2022-08-05T08:53:27.858Z,31.48
2022-08-05T08:56:35.083Z,31.64
2022-08-05T08:59:47.156Z,31.56
2022-08-05T09:02:55.257Z,31.38
2022-08-05T09:06:08.765Z,31.59
2022-08-05T09:09:16.822Z,31.64
2022-08-05T09:12:27.811Z,31.54
2022-08-05T09:15:36.838Z,31.73
2022-08-05T09:18:44.888Z,31.58
2022-08-05T09:22:23.393Z,31.79
2022-08-05T09:25:23.911Z,31.76
2022-08-05T09:28:48.287Z,31.60
2022-08-05T09:32:40.092Z,31.69
2022-08-05T09:35:32.787Z,31.74
2022-08-05T09:38:38.745Z,31.74
2022-08-05T09:41:59.137Z,31.72
2022-08-05T09:46:04.945Z,31.91
2022-08-05T09:48:35.367Z,32.03
2022-08-05T09:51:42.672Z,31.98
2022-08-05T09:55:58.138Z,32.14
2022-08-05T09:58:38.704Z,32.31
2022-08-05T10:01:48.543Z,32.52
2022-08-05T10:05:10.766Z,32.24
2022-08-05T10:08:37.249Z,32.40
2022-08-05T10:11:45.752Z,32.34
2022-08-05T10:14:54.502Z,32.43
2022-08-05T10:18:17.432Z,32.37
2022-08-05T10:21:22.953Z,32.60
2022-08-05T10:24:29.039Z,32.63
2022-08-05T10:28:09.455Z,32.51
2022-08-05T10:32:51.660Z,32.60
2022-08-05T10:34:29.973Z,32.47
2022-08-05T10:37:44.364Z,32.87
2022-08-05T10:40:52.377Z,32.96
2022-08-05T10:44:09.371Z,32.82
2022-08-05T10:47:26.574Z,33.09
2022-08-05T10:50:37.140Z,33.15
2022-08-05T10:53:55.004Z,33.34
2022-08-05T10:57:00.753Z,33.18
2022-08-05T11:00:22.632Z,33.43
2022-08-05T11:03:29.786Z,33.60
2022-08-05T11:06:36.670Z,33.65
2022-08-05T11:09:46.148Z,33.77
2022-08-05T11:12:55.060Z,33.76
2022-08-05T11:16:33.683Z,33.63
2022-08-05T11:20:10.526Z,33.69
2022-08-05T11:23:33.745Z,33.58
2022-08-05T11:27:51.475Z,33.88
2022-08-05T11:30:58.447Z,33.82
2022-08-05T11:34:08.187Z,34.00
2022-08-05T11:38:36.900Z,33.84
2022-08-05T11:41:57.962Z,33.86
2022-08-05T11:45:14.569Z,33.69
2022-08-05T11:48:33.527Z,33.86
2022-08-05T11:51:44.756Z,33.86
2022-08-05T11:54:55.801Z,33.69
2022-08-05T11:58:10.385Z,33.74
2022-08-05T12:01:21.451Z,33.56
2022-08-05T12:04:29.630Z,33.78
2022-08-05T12:08:08.837Z,33.92
2022-08-05T12:11:06.336Z,33.86
2022-08-05T12:14:12.319Z,33.84
2022-08-05T12:18:03.724Z,33.92
2022-08-05T12:20:43.556Z,33.92
2022-08-05T12:24:11.317Z,33.95
2022-08-05T12:27:25.708Z,33.92
2022-08-05T12:30:39.192Z,34.15
2022-08-05T12:33:51.649Z,34.09
2022-08-05T12:37:11.031Z,34.15
2022-08-05T12:40:29.657Z,34.08
2022-08-05T12:43:36.416Z,34.22
2022-08-05T12:46:53.075Z,34.31
2022-08-05T12:50:04.340Z,34.41
2022-08-05T12:53:17.369Z,34.43
2022-08-05T12:56:34.908Z,34.52
2022-08-05T13:01:58.168Z,34.46
2022-08-05T13:03:14.721Z,34.57
2022-08-05T13:06:20.277Z,34.59
2022-08-05T13:09:28.735Z,34.58
2022-08-05T13:12:50.752Z,34.47
2022-08-05T13:16:03.350Z,34.71
2022-08-05T13:19:16.072Z,34.92
2022-08-05T13:22:28.458Z,34.84
2022-08-05T13:25:52.437Z,34.76
2022-08-05T13:29:01.358Z,34.89
2022-08-05T13:32:06.913Z,34.79
2022-08-05T13:35:14.801Z,34.82
2022-08-05T13:38:31.206Z,35.15
2022-08-05T13:41:41.744Z,35.16
2022-08-05T13:44:47.904Z,35.02
2022-08-05T13:48:09.953Z,35.21
2022-08-05T13:51:36.616Z,35.18
2022-08-05T13:54:53.239Z,35.37
2022-08-05T13:57:59.650Z,35.39
2022-08-05T14:01:06.180Z,35.40
2022-08-05T14:04:31.561Z,34.96
2022-08-05T14:07:59.945Z,35.14
2022-08-05T14:11:20.157Z,35.28
2022-08-05T14:14:30.843Z,35.43
2022-08-05T14:17:39.878Z,35.38
2022-08-05T14:20:48.947Z,35.37
2022-08-05T14:24:00.566Z,35.42
2022-08-05T14:27:18.199Z,35.37
2022-08-05T14:30:26.583Z,35.55
2022-08-05T14:34:00.089Z,35.62
2022-08-05T14:37:00.209Z,35.61
2022-08-05T14:40:07.086Z,35.64
2022-08-05T14:43:12.546Z,35.53
2022-08-05T14:46:19.613Z,35.65
2022-08-05T14:49:25.565Z,35.81
2022-08-05T14:56:57.379Z,35.64
2022-08-05T15:00:04.140Z,35.51
2022-08-05T15:03:10.051Z,35.61
2022-08-05T15:06:16.015Z,35.66
2022-08-05T15:09:51.201Z,35.72
2022-08-05T15:13:00.627Z,35.76
2022-08-05T15:16:07.605Z,35.64
2022-08-05T15:19:23.909Z,35.63
2022-08-05T15:22:29.450Z,35.70
2022-08-05T15:25:51.501Z,35.78
2022-08-05T15:28:58.886Z,35.88
2022-08-05T15:32:08.220Z,35.77
2022-08-05T15:35:14.995Z,35.84
2022-08-05T15:38:34.622Z,35.85
2022-08-05T15:41:55.531Z,35.81
2022-08-05T15:45:02.413Z,35.83
2022-08-05T15:48:08.035Z,35.85
2022-08-05T15:51:13.411Z,35.76
2022-08-05T15:54:19.962Z,35.73
2022-08-05T15:57:41.957Z,35.76
2022-08-05T16:01:11.560Z,35.85
2022-08-05T16:04:18.045Z,36.12
2022-08-05T16:07:24.107Z,35.76
2022-08-05T16:10:29.295Z,35.99
2022-08-05T16:13:35.017Z,35.75
2022-08-05T16:16:40.557Z,35.89
2022-08-05T16:20:05.075Z,35.68
2022-08-05T16:23:11.369Z,35.53
2022-08-05T16:26:18.206Z,35.48
2022-08-05T16:29:24.747Z,35.40
2022-08-05T16:32:30.468Z,35.29
2022-08-05T16:35:42.181Z,35.27
2022-08-05T16:38:55.134Z,35.45
2022-08-05T16:42:14.339Z,35.04
2022-08-05T16:46:04.549Z,35.19
2022-08-05T16:48:48.587Z,35.12
2022-08-05T16:51:54.820Z,35.23
2022-08-05T16:55:02.065Z,35.11
2022-08-05T16:58:10.509Z,35.25
2022-08-05T17:01:19.765Z,35.04
2022-08-05T17:04:28.119Z,35.15
2022-08-05T17:07:43.474Z,34.92
2022-08-05T17:10:59.678Z,34.80
2022-08-05T17:14:06.562Z,34.41
2022-08-05T17:17:15.033Z,34.23
2022-08-05T17:20:21.404Z,34.20
2022-08-05T17:24:04.615Z,34.11
2022-08-05T17:26:52.917Z,34.01
2022-08-05T17:29:59.753Z,33.93
2022-08-05T17:33:08.557Z,33.88
2022-08-05T17:36:33.783Z,33.82
2022-08-05T17:39:40.598Z,33.68
2022-08-05T17:42:53.124Z,33.61
2022-08-05T17:45:58.883Z,33.50
2022-08-05T17:49:05.936Z,33.43
2022-08-05T17:52:12.497Z,33.27
2022-08-05T17:55:18.539Z,33.09
2022-08-05T17:58:32.240Z,32.90
2022-08-05T18:01:48.486Z,32.56
2022-08-05T18:04:56.591Z,32.49
2022-08-05T18:08:02.031Z,32.33
2022-08-05T18:11:08.301Z,32.31
2022-08-05T18:14:20.457Z,32.24
2022-08-05T18:18:01.655Z,32.09
2022-08-05T18:20:52.543Z,31.96
2022-08-05T18:24:04.292Z,31.96
2022-08-05T18:27:16.589Z,31.92
2022-08-05T18:30:26.305Z,31.87
2022-08-05T18:33:37.586Z,31.84
2022-08-05T18:36:54.234Z,31.68
2022-08-05T18:40:57.610Z,31.53
2022-08-05T18:43:25.933Z,31.47
2022-08-05T18:46:37.273Z,31.41
2022-08-05T18:50:04.653Z,31.35
2022-08-05T18:53:19.387Z,31.30
2022-08-05T18:56:28.582Z,31.30
2022-08-05T18:59:44.174Z,31.31
2022-08-05T19:03:03.649Z,31.24
2022-08-05T19:06:18.706Z,31.01
2022-08-05T19:09:27.300Z,30.95
2022-08-05T19:12:34.378Z,31.14
2022-08-05T19:15:59.900Z,31.17
2022-08-05T19:19:05.601Z,31.09
2022-08-05T19:22:12.886Z,31.06
2022-08-05T19:25:30.695Z,31.00
2022-08-05T19:28:46.153Z,30.95
2022-08-05T19:31:53.191Z,30.91
2022-08-05T19:34:59.107Z,30.80
2022-08-05T19:38:11.857Z,30.77
2022-08-05T19:41:21.927Z,30.71
2022-08-05T19:44:45.322Z,30.64
2022-08-05T19:47:55.698Z,30.53
2022-08-05T19:51:01.954Z,30.63
2022-08-05T19:54:26.955Z,30.47
2022-08-05T19:57:49.303Z,30.39
2022-08-05T20:01:02.492Z,30.31
2022-08-05T20:04:11.522Z,30.18
2022-08-05T20:07:48.358Z,30.13
2022-08-05T20:10:43.294Z,30.01
2022-08-05T20:13:58.703Z,29.91
2022-08-05T20:17:16.301Z,29.86
2022-08-05T20:20:23.202Z,29.78
2022-08-05T20:23:39.843Z,29.81
2022-08-05T20:26:55.843Z,29.95
2022-08-05T20:30:02.716Z,29.76
2022-08-05T20:33:09.122Z,29.71
2022-08-05T20:36:16.189Z,29.68
2022-08-05T20:39:22.828Z,29.59
2022-08-05T20:42:28.413Z,29.66
2022-08-05T20:45:56.490Z,29.62
2022-08-05T20:48:59.862Z,29.55
2022-08-05T20:52:10.721Z,29.67
2022-08-05T20:55:54.899Z,29.50
2022-08-05T20:58:43.979Z,29.58
2022-08-05T21:01:52.116Z,29.45
2022-08-05T21:04:57.747Z,29.33
2022-08-05T21:08:07.137Z,29.01
2022-08-05T21:12:06.559Z,28.86
2022-08-05T21:14:40.018Z,28.37
2022-08-05T21:17:46.354Z,28.45
2022-08-05T21:20:55.820Z,28.66
2022-08-05T21:24:01.453Z,28.80
2022-08-05T21:27:10.191Z,28.88
2022-08-05T21:30:17.398Z,29.03
2022-08-05T21:33:23.575Z,28.80
2022-08-05T21:36:30.159Z,28.59
2022-08-05T21:39:40.250Z,28.68
2022-08-05T21:42:47.512Z,28.71
2022-08-05T21:45:57.811Z,28.62
2022-08-05T21:49:10.889Z,28.39
2022-08-05T21:52:35.062Z,28.30
2022-08-05T21:56:01.400Z,28.36
2022-08-05T21:59:07.945Z,28.44
2022-08-05T22:02:28.825Z,28.43
2022-08-05T22:05:48.917Z,28.46
2022-08-05T22:08:55.623Z,28.41
2022-08-05T22:12:10.679Z,28.42
2022-08-05T22:16:01.991Z,28.53
2022-08-05T22:18:43.607Z,28.55
2022-08-05T22:21:55.412Z,28.62
2022-08-05T22:25:27.262Z,28.64
2022-08-05T22:28:33.633Z,28.63
2022-08-05T22:31:44.589Z,28.68
2022-08-05T22:34:50.419Z,28.56
2022-08-05T22:37:59.179Z,28.63
2022-08-05T22:41:09.410Z,28.56
2022-08-05T22:44:16.502Z,28.48
2022-08-05T22:47:29.256Z,28.58
2022-08-05T22:50:36.448Z,28.58
2022-08-05T22:53:55.053Z,28.47
2022-08-05T22:57:00.958Z,28.31
2022-08-05T23:00:10.271Z,28.34
2022-08-05T23:03:23.402Z,28.28
2022-08-05T23:06:49.266Z,28.12
2022-08-05T23:10:01.096Z,28.05
2022-08-05T23:13:08.230Z,27.80
2022-08-05T23:16:14.195Z,27.91
2022-08-05T23:19:38.596Z,27.94
2022-08-05T23:22:56.026Z,27.93
2022-08-05T23:26:01.987Z,27.89
2022-08-05T23:29:09.844Z,27.99
2022-08-05T23:32:23.084Z,28.08
2022-08-05T23:35:34.399Z,28.16
2022-08-05T23:38:40.260Z,28.19
2022-08-05T23:41:48.372Z,27.82
2022-08-05T23:44:54.680Z,27.57
2022-08-05T23:48:03.221Z,27.56
2022-08-05T23:51:10.456Z,27.71
2022-08-05T23:54:25.993Z,27.51
2022-08-05T23:57:32.383Z,27.18
